Time;durP1;ratioP1;P1;durP2;ratioP2;P2;SDS_P1;SDS_P2;PMS_P1;PMS_P2;Temp;Humidity;BMP_temperature;BMP_pressure;BME280_temperature;BME280_humidity;BME280_pressure;Samples;Min_cycle;Max_cycle;Signal;HPM_P1;HPM_P2
2021/08/25 00:00:07;;;;;;;2.30;1.67;;;;;;;14.15;73.51;100641.68;1465776;88;21526;-90
2021/08/25 00:02:34;;;;;;;1.53;1.40;;;;;;;14.14;73.88;100644.84;1471831;89;21324;-90
2021/08/25 00:05:00;;;;;;;2.80;1.97;;;;;;;14.11;73.85;100642.52;1469868;89;21478;-91
2021/08/25 00:07:27;;;;;;;2.47;1.60;;;;;;;14.14;73.52;100645.35;1466189;88;21629;-91
2021/08/25 00:09:54;;;;;;;3.53;1.70;;;;;;;14.17;73.81;100649.01;1466644;89;21294;-94
2021/08/25 00:12:20;;;;;;;5.13;2.17;;;;;;;14.19;73.48;100647.03;1461891;89;21437;-93
2021/08/25 00:14:46;;;;;;;5.13;2.20;;;;;;;14.15;73.82;100641.68;1460530;86;21540;-92
2021/08/25 00:17:22;;;;;;;2.40;1.90;;;;;;;14.15;73.71;100642.51;1400831;93;21453;-94
2021/08/25 00:19:42;;;;;;;3.12;2.08;;;;;;;14.14;73.72;100652.00;1385166;90;23469;-93
2021/08/25 00:22:11;;;;;;;11.67;1.90;;;;;;;14.17;73.47;100649.01;1411753;93;21431;-90
2021/08/25 00:24:37;;;;;;;3.53;2.40;;;;;;;14.14;73.65;100647.51;1405928;93;21534;-92
2021/08/25 00:27:04;;;;;;;2.63;1.50;;;;;;;14.15;73.53;100649.67;1397435;93;21615;-89
2021/08/25 00:29:30;;;;;;;3.67;2.07;;;;;;;14.09;73.70;100643.17;1401478;93;21664;-89
2021/08/25 00:31:56;;;;;;;6.47;1.73;;;;;;;14.13;73.56;100645.03;1403758;93;21567;-90
2021/08/25 00:34:22;;;;;;;4.17;2.40;;;;;;;14.18;73.44;100644.02;1411465;93;21505;-90
2021/08/25 00:36:49;;;;;;;4.27;2.37;;;;;;;14.15;73.45;100643.84;1397307;93;22361;-90
2021/08/25 00:39:15;;;;;;;3.70;2.10;;;;;;;14.21;73.21;100646.34;1385517;93;21438;-90
2021/08/25 00:41:41;;;;;;;5.87;2.00;;;;;;;14.17;73.23;100637.03;1397062;93;21377;-90
2021/08/25 00:44:08;;;;;;;4.00;2.17;;;;;;;14.12;73.40;100639.35;1399870;92;21585;-89
2021/08/25 00:46:36;;;;;;;5.70;2.63;;;;;;;14.20;73.30;100646.02;1400094;93;21431;-89
2021/08/25 00:49:03;;;;;;;5.43;2.13;;;;;;;14.20;73.38;100640.19;1398444;93;21415;-90
2021/08/25 00:51:29;;;;;;;4.93;2.33;;;;;;;14.21;73.37;100635.69;1403283;93;22311;-88
2021/08/25 00:53:57;;;;;;;5.47;2.47;;;;;;;14.24;73.38;100635.36;1393502;93;21357;-90
2021/08/25 00:56:24;;;;;;;9.43;2.87;;;;;;;14.20;73.36;100623.39;1397630;93;21490;-92
2021/08/25 00:58:53;;;;;;;6.00;2.33;;;;;;;14.18;73.35;100629.37;1405549;93;21519;-91
2021/08/25 01:02:01;;;;;;;4.60;2.27;;;;;;;14.20;73.98;100618.89;1400850;93;22354;-90
2021/08/25 01:04:55;;;;;;;4.33;2.50;;;;;;;14.14;73.28;100624.06;1399906;93;21699;-92
2021/08/25 01:07:24;;;;;;;7.17;2.47;;;;;;;14.15;73.35;100617.72;1402777;92;21378;-91
2021/08/25 01:09:52;;;;;;;5.77;3.13;;;;;;;14.14;73.19;100610.75;1400996;93;21896;-93
2021/08/25 01:12:25;;;;;;;5.13;2.60;;;;;;;14.09;73.45;100621.05;1395327;93;21489;-93
2021/08/25 01:14:51;;;;;;;5.53;2.63;;;;;;;14.13;73.53;100606.44;1396146;93;23455;-92
2021/08/25 01:17:26;;;;;;;6.23;2.43;;;;;;;14.09;73.50;100609.91;1365940;93;21539;-89
2021/08/25 01:20:11;;;;;;;4.70;3.20;;;;;;;13.99;73.66;100598.10;1400958;93;21407;-92
2021/08/25 01:22:41;;;;;;;3.07;2.20;;;;;;;14.03;73.50;100604.42;1401704;93;22331;-90
2021/08/25 01:25:10;;;;;;;3.55;2.67;;;;;;;13.97;73.21;100602.75;1394229;93;21391;-90
2021/08/25 01:27:51;;;;;;;6.00;2.90;;;;;;;14.01;73.51;100609.89;1396195;93;21626;-89
2021/08/25 01:30:19;;;;;;;5.77;2.93;;;;;;;14.08;73.23;100602.10;1403710;93;22324;-92
2021/08/25 01:32:45;;;;;;;7.63;2.73;;;;;;;14.09;72.91;100595.27;1370661;95;21422;-91
2021/08/25 01:35:13;;;;;;;4.13;2.83;;;;;;;14.07;72.97;100601.28;1409594;93;21479;-92
2021/08/25 01:37:40;;;;;;;4.57;2.40;;;;;;;14.06;73.56;100600.92;1368793;95;21969;-92
2021/08/25 01:40:08;;;;;;;5.47;3.20;;;;;;;14.06;73.11;100605.42;1372274;95;21407;-93
2021/08/25 01:42:34;;;;;;;3.33;2.07;;;;;;;14.11;73.11;100591.12;1406913;93;21514;-94
2021/08/25 01:45:00;;;;;;;6.30;3.33;;;;;;;14.04;73.32;100584.78;1397039;93;21465;-94
2021/08/25 01:47:27;;;;;;;7.03;3.67;;;;;;;13.99;72.95;100591.45;1371662;95;21421;-92
2021/08/25 01:49:54;;;;;;;3.93;2.93;;;;;;;14.03;72.97;100600.44;1375153;95;21541;-94
2021/08/25 01:52:21;;;;;;;4.57;3.43;;;;;;;13.97;72.87;100588.12;1399031;92;21612;-93
2021/08/25 01:54:53;;;;;;;5.50;2.57;;;;;;;14.02;72.90;100588.96;1402374;93;22344;-92
2021/08/25 01:57:20;;;;;;;7.30;3.20;;;;;;;13.95;73.15;100576.83;1401433;93;21577;-92
2021/08/25 01:59:47;;;;;;;6.73;2.53;;;;;;;13.88;72.83;100575.81;1405669;93;21510;-92
2021/08/25 02:02:13;;;;;;;7.63;3.50;;;;;;;13.91;72.99;100578.64;1390982;93;21735;-93
2021/08/25 02:04:40;;;;;;;6.47;3.57;;;;;;;13.91;73.14;100562.17;1398379;93;21421;-92
2021/08/25 02:07:07;;;;;;;3.40;2.60;;;;;;;13.96;73.83;100562.52;1399846;93;21450;-91
2021/08/25 02:09:33;;;;;;;8.57;3.03;;;;;;;13.99;72.85;100571.50;1400235;93;21524;-90
2021/08/25 02:11:59;;;;;;;3.13;2.53;;;;;;;14.04;72.52;100570.15;1405936;93;22161;-93
2021/08/25 02:14:26;;;;;;;9.30;4.00;;;;;;;13.93;72.73;100562.02;1377097;95;21429;-93
2021/08/25 02:16:52;;;;;;;6.00;3.43;;;;;;;14.03;72.67;100569.33;1394556;91;21421;-90
2021/08/25 02:19:18;;;;;;;8.83;3.30;;;;;;;14.04;72.67;100574.14;1362599;94;21347;-90
2021/08/25 02:21:45;;;;;;;7.33;3.57;;;;;;;13.98;72.60;100568.98;1353219;97;22612;-90
2021/08/25 02:24:11;;;;;;;9.50;2.87;;;;;;;14.00;72.69;100567.83;1348412;97;22063;-90
2021/08/25 02:26:37;;;;;;;6.37;3.90;;;;;;;13.97;73.22;100564.67;1355482;97;21577;-92
2021/08/25 02:29:03;;;;;;;5.80;2.97;;;;;;;13.87;73.00;100561.36;1354321;97;21578;-91
2021/08/25 02:31:30;;;;;;;7.13;2.87;;;;;;;13.89;73.05;100560.17;1363059;95;21580;-91
2021/08/25 02:33:56;;;;;;;5.53;3.53;;;;;;;13.83;73.42;100562.67;1387429;94;21445;-89
2021/08/25 02:36:23;;;;;;;7.00;3.20;;;;;;;13.89;73.07;100561.50;1358742;97;22376;-91
2021/08/25 02:38:50;;;;;;;7.17;3.33;;;;;;;13.89;73.45;100568.16;1350440;96;21539;-93
2021/08/25 02:41:18;;;;;;;4.63;2.80;;;;;;;13.88;73.43;100567.83;1349678;97;22500;-93
2021/08/25 02:43:45;;;;;;;5.80;3.57;;;;;;;13.92;74.00;100566.99;1359513;96;22354;-91
2021/08/25 02:46:12;;;;;;;5.63;2.97;;;;;;;13.91;73.68;100567.50;1389813;94;21570;-91
2021/08/25 02:48:40;;;;;;;11.70;4.40;;;;;;;13.86;73.89;100560.50;1361506;97;21327;-92
2021/08/25 02:51:06;;;;;;;7.07;4.07;;;;;;;13.86;73.31;100555.19;1390149;94;21466;-91
2021/08/25 02:53:32;;;;;;;8.47;4.30;;;;;;;13.88;73.56;100551.05;1357589;97;21598;-92
2021/08/25 02:55:58;;;;;;;8.47;3.00;;;;;;;13.85;73.25;100562.84;1358959;96;22486;-90
2021/08/25 02:58:25;;;;;;;8.30;3.90;;;;;;;13.82;73.49;100553.86;1350489;97;21930;-91
2021/08/25 03:00:51;;;;;;;8.13;3.37;;;;;;;13.83;73.57;100552.86;1349324;97;21407;-90
2021/08/25 03:03:17;;;;;;;5.97;3.57;;;;;;;13.82;73.62;100550.38;1354859;96;21451;-90
2021/08/25 03:05:44;;;;;;;4.37;3.13;;;;;;;13.78;73.73;100543.20;1352922;97;21377;-91
2021/08/25 03:08:10;;;;;;;6.10;3.00;;;;;;;13.80;73.88;100549.20;1360613;95;21563;-90
2021/08/25 03:10:37;;;;;;;5.27;3.40;;;;;;;13.75;73.65;100538.22;1390500;94;21399;-91
2021/08/25 03:13:03;;;;;;;4.47;2.83;;;;;;;13.68;73.87;100542.05;1380822;94;21458;-91
2021/08/25 03:15:29;;;;;;;5.57;2.70;;;;;;;13.72;73.95;100548.72;1353041;97;21458;-92
2021/08/25 03:17:55;;;;;;;11.43;5.73;;;;;;;13.66;73.70;100548.52;1405114;93;21444;-93
2021/08/25 03:20:22;;;;;;;6.77;3.90;;;;;;;13.74;73.99;100553.85;1417662;92;21452;-89
2021/08/25 03:22:48;;;;;;;9.83;3.67;;;;;;;13.70;73.53;100555.19;1408831;93;21407;-89
2021/08/25 03:25:15;;;;;;;5.97;3.57;;;;;;;13.60;73.78;100549.19;1412586;92;21466;-90
2021/08/25 03:27:41;;;;;;;4.80;3.20;;;;;;;13.61;73.56;100554.83;1403675;93;21349;-89
2021/08/25 03:30:08;;;;;;;5.03;3.37;;;;;;;13.62;73.28;100551.19;1398701;93;23247;-92
2021/08/25 03:32:34;;;;;;;5.73;3.20;;;;;;;13.65;73.48;100558.33;1406455;92;21451;-91
2021/08/25 03:35:01;;;;;;;6.83;3.27;;;;;;;13.61;73.25;100566.79;1411642;92;23162;-91
2021/08/25 03:37:27;;;;;;;5.20;3.03;;;;;;;13.51;73.25;100554.98;1415211;92;21421;-92
2021/08/25 03:39:54;;;;;;;5.90;3.67;;;;;;;13.62;73.44;100561.33;1406665;93;22317;-91
2021/08/25 03:42:20;;;;;;;5.07;3.03;;;;;;;13.60;73.27;100558.48;1411006;93;21400;-92
2021/08/25 03:44:46;;;;;;;5.80;3.43;;;;;;;13.53;73.19;100564.47;1412481;92;22360;-92
2021/08/25 03:47:12;;;;;;;5.73;3.83;;;;;;;13.53;73.05;100557.82;1402568;93;21422;-92
2021/08/25 03:49:38;;;;;;;6.23;3.30;;;;;;;13.54;73.01;100562.13;1411331;92;21496;-91
2021/08/25 03:52:05;;;;;;;5.27;3.73;;;;;;;13.59;73.33;100560.83;1411283;92;22426;-92
2021/08/25 03:54:31;;;;;;;7.60;3.80;;;;;;;13.64;72.96;100560.67;1396950;93;21827;-92
2021/08/25 03:56:57;;;;;;;7.33;3.57;;;;;;;13.67;72.77;100556.35;1406607;92;21400;-93
2021/08/25 03:59:23;;;;;;;6.13;3.80;;;;;;;13.70;72.96;100553.86;1414666;92;22347;-93
2021/08/25 04:01:50;;;;;;;6.53;3.00;;;;;;;13.65;72.74;100550.86;1400364;92;21480;-91
2021/08/25 04:04:18;;;;;;;9.03;3.57;;;;;;;13.60;72.93;100546.52;1413511;92;21444;-95
2021/08/25 04:06:44;;;;;;;10.13;2.77;;;;;;;13.59;72.94;100551.02;1407696;92;21636;-92
2021/08/25 04:09:11;;;;;;;7.63;3.70;;;;;;;13.63;72.97;100562.15;1415811;92;21503;-92
2021/08/25 04:11:37;;;;;;;5.77;3.53;;;;;;;13.60;73.38;100559.82;1412504;92;21496;-92
2021/08/25 04:14:04;;;;;;;10.33;4.03;;;;;;;13.59;72.78;100562.16;1420466;92;21414;-93
2021/08/25 04:16:31;;;;;;;8.17;4.17;;;;;;;13.56;72.90;100563.31;1403014;92;21636;-92
2021/08/25 04:18:57;;;;;;;7.07;4.27;;;;;;;13.61;72.91;100559.67;1421000;91;21426;-93
2021/08/25 04:21:26;;;;;;;5.77;4.03;;;;;;;13.64;73.09;100564.66;1430148;91;21409;-91
2021/08/25 04:23:52;;;;;;;9.13;3.97;;;;;;;13.60;73.33;100551.84;1418681;91;21461;-93
2021/08/25 04:26:19;;;;;;;8.03;4.40;;;;;;;13.65;72.66;100559.66;1430567;91;21432;-92
2021/08/25 04:28:45;;;;;;;8.83;3.80;;;;;;;13.59;72.88;100556.84;1412147;91;21381;-94
2021/08/25 04:31:11;;;;;;;19.90;4.40;;;;;;;13.62;72.68;100557.84;1426716;91;22052;-93
2021/08/25 04:33:38;;;;;;;7.33;4.80;;;;;;;13.64;72.56;100557.19;1421359;91;21405;-90
2021/08/25 04:36:05;;;;;;;7.67;3.83;;;;;;;13.65;72.41;100558.84;1426981;91;21425;-92
2021/08/25 04:38:31;;;;;;;7.10;3.93;;;;;;;13.69;72.20;100568.14;1425560;91;22423;-93
2021/08/25 04:40:59;;;;;;;7.57;4.07;;;;;;;13.58;72.23;100565.32;1428205;91;21536;-93
2021/08/25 04:43:26;;;;;;;5.17;3.87;;;;;;;13.65;72.16;100561.50;1427194;91;21388;-91
2021/08/25 04:45:53;;;;;;;8.50;4.00;;;;;;;13.63;72.02;100555.50;1424085;91;22552;-92
2021/08/25 04:48:19;;;;;;;6.93;3.90;;;;;;;13.63;71.92;100558.98;1435185;91;21366;-93
2021/08/25 04:50:45;;;;;;;13.63;4.60;;;;;;;13.62;72.21;100559.17;1426662;91;21351;-92
2021/08/25 04:53:12;;;;;;;7.07;4.10;;;;;;;13.63;71.73;100567.47;1425170;91;21499;-93
2021/08/25 04:55:38;;;;;;;7.83;4.13;;;;;;;13.59;71.91;100563.48;1427955;91;21381;-93
2021/08/25 04:58:05;;;;;;;8.87;4.30;;;;;;;13.64;72.28;100563.84;1427857;91;22305;-91
2021/08/25 05:00:31;;;;;;;7.93;4.37;;;;;;;13.67;71.75;100564.83;1423663;91;21507;-91
2021/08/25 05:02:57;;;;;;;9.43;4.30;;;;;;;13.67;71.60;100554.20;1420066;91;21425;-92
2021/08/25 05:05:24;;;;;;;10.70;5.00;;;;;;;13.67;71.55;100551.53;1431060;91;21381;-91
2021/08/25 05:07:50;;;;;;;7.57;4.70;;;;;;;13.65;71.31;100549.53;1428863;91;21485;-90
2021/08/25 05:10:17;;;;;;;9.00;4.40;;;;;;;13.61;71.24;100549.51;1425796;91;21358;-91
2021/08/25 05:12:45;;;;;;;6.33;4.10;;;;;;;13.61;71.19;100541.05;1422288;91;22415;-91
2021/08/25 05:15:12;;;;;;;10.20;4.17;;;;;;;13.63;71.48;100539.04;1425197;91;21463;-92
2021/08/25 05:17:39;;;;;;;13.00;4.63;;;;;;;13.66;71.41;100532.56;1417628;91;21491;-92
2021/08/25 05:20:08;;;;;;;10.57;4.33;;;;;;;13.74;71.51;100528.59;1423115;91;21409;-90
2021/08/25 05:22:35;;;;;;;5.77;3.70;;;;;;;13.72;71.36;100521.27;1431422;91;21352;-88
2021/08/25 05:25:02;;;;;;;6.20;4.30;;;;;;;13.59;70.78;100511.63;1422857;91;21433;-89
2021/08/25 05:27:29;;;;;;;8.07;3.70;;;;;;;13.48;70.87;100522.91;1405047;92;21507;-88
2021/08/25 05:29:55;;;;;;;6.10;4.00;;;;;;;13.48;71.10;100512.27;1426926;91;23455;-90
2021/08/25 05:32:21;;;;;;;7.83;4.87;;;;;;;13.46;71.57;100520.90;1422361;92;21440;-88
2021/08/25 05:34:47;;;;;;;10.63;4.00;;;;;;;13.43;71.32;100519.91;1426930;91;23299;-89
2021/08/25 05:37:13;;;;;;;9.07;4.43;;;;;;;13.38;70.46;100518.73;1428300;91;22006;-88
2021/08/25 05:39:40;;;;;;;9.20;4.53;;;;;;;13.37;70.86;100528.53;1426076;91;21424;-88
2021/08/25 05:42:06;;;;;;;8.37;4.07;;;;;;;13.39;70.89;100528.39;1427875;92;21440;-88
2021/08/25 05:44:32;;;;;;;10.63;4.10;;;;;;;13.39;70.76;100523.06;1418131;91;21446;-88
2021/08/25 05:47:12;;;;;;;6.43;3.53;;;;;;;13.35;70.58;100518.59;1420059;92;21828;-88
2021/08/25 05:49:38;;;;;;;9.40;4.10;;;;;;;13.41;70.44;100505.96;1420606;92;21472;-87
2021/08/25 05:52:05;;;;;;;6.17;3.80;;;;;;;13.50;70.29;100502.31;1413920;91;21432;-88
2021/08/25 05:54:31;;;;;;;5.70;4.27;;;;;;;13.72;70.57;100503.50;1417168;91;21615;-88
2021/08/25 05:56:57;;;;;;;8.50;3.97;;;;;;;13.85;69.59;100501.66;1425824;91;21296;-87
2021/08/25 05:59:23;;;;;;;5.87;3.80;;;;;;;14.04;69.37;100506.28;1424869;92;22464;-87
2021/08/25 06:01:49;;;;;;;4.97;3.53;;;;;;;14.12;68.09;100499.13;1429651;92;21444;-88
2021/08/25 06:04:15;;;;;;;7.83;4.30;;;;;;;14.35;68.17;100508.55;1423612;92;21407;-88
2021/08/25 06:06:41;;;;;;;5.80;3.73;;;;;;;14.50;67.80;100507.85;1425436;92;21443;-87
2021/08/25 06:09:07;;;;;;;8.23;4.67;;;;;;;14.47;67.10;100510.86;1404476;92;21472;-87
2021/08/25 06:11:38;;;;;;;7.43;3.77;;;;;;;14.70;67.46;100514.47;1427740;92;22397;-87
2021/08/25 06:14:02;;;;;;;7.10;3.97;;;;;;;14.74;66.75;100522.47;1421885;91;22367;-87
2021/08/25 06:16:28;;;;;;;5.77;3.87;;;;;;;14.86;66.54;100515.75;1422585;91;21451;-89
2021/08/25 06:18:54;;;;;;;10.33;4.63;;;;;;;14.98;66.25;100526.03;1405188;91;21613;-90
2021/08/25 06:21:20;;;;;;;7.03;3.60;;;;;;;15.09;66.55;100518.98;1401557;92;21406;-89
2021/08/25 06:23:46;;;;;;;10.60;4.07;;;;;;;15.18;65.06;100524.58;1401407;92;21598;-89
2021/08/25 06:26:15;;;;;;;6.93;3.40;;;;;;;15.20;64.72;100521.25;1369711;94;21341;-89
2021/08/25 06:28:41;;;;;;;6.33;3.67;;;;;;;15.29;64.92;100526.86;1392839;93;21590;-90
2021/08/25 06:31:07;;;;;;;6.87;3.20;;;;;;;15.31;64.44;100526.19;1398277;93;21497;-90
2021/08/25 06:33:37;;;;;;;8.80;3.97;;;;;;;15.39;63.83;100528.45;1378628;95;21356;-90
2021/08/25 06:36:02;;;;;;;4.87;3.23;;;;;;;15.44;64.36;100536.26;1401603;92;21494;-89
2021/08/25 06:38:29;;;;;;;7.83;3.90;;;;;;;15.48;64.79;100534.92;1405596;93;22310;-90
2021/08/25 06:40:55;;;;;;;6.83;3.60;;;;;;;15.65;64.77;100538.31;1403999;93;23363;-90
2021/08/25 06:43:21;;;;;;;4.40;2.73;;;;;;;15.70;63.13;100535.94;1409266;93;21451;-89
2021/08/25 06:45:47;;;;;;;6.30;3.47;;;;;;;15.72;62.27;100531.27;1403470;93;21356;-89
2021/08/25 06:48:13;;;;;;;8.13;4.20;;;;;;;15.82;63.14;100522.18;1409447;92;21421;-90
2021/08/25 06:50:39;;;;;;;7.70;3.83;;;;;;;15.87;62.68;100517.97;1395982;93;21844;-88
2021/08/25 06:53:06;;;;;;;6.73;3.80;;;;;;;15.89;62.12;100523.96;1404294;93;22648;-88
2021/08/25 06:55:32;;;;;;;8.30;4.37;;;;;;;15.73;61.73;100520.08;1407854;93;21496;-90
2021/08/25 06:57:58;;;;;;;9.17;3.60;;;;;;;15.85;61.95;100516.48;1397280;93;21465;-92
2021/08/25 07:00:24;;;;;;;7.77;3.80;;;;;;;16.06;62.07;100511.81;1404256;93;21362;-95
2021/08/25 07:02:50;;;;;;;10.67;3.50;;;;;;;16.11;61.11;100511.59;1413519;92;21407;-93
2021/08/25 07:05:20;;;;;;;8.53;4.37;;;;;;;16.33;62.17;100511.70;1384760;90;22340;-95
2021/08/25 07:07:47;;;;;;;7.50;4.10;;;;;;;16.27;61.61;100509.77;1398614;93;21436;-94
2021/08/25 07:10:14;;;;;;;5.93;2.90;;;;;;;16.35;60.88;100515.02;1386142;93;21435;-94
2021/08/25 07:12:40;;;;;;;7.83;3.80;;;;;;;16.23;59.43;100518.14;1388201;93;21599;-96
2021/08/25 07:15:07;;;;;;;7.93;3.73;;;;;;;16.34;60.02;100512.02;1404109;93;22390;-92
2021/08/25 07:17:33;;;;;;;6.20;3.53;;;;;;;16.36;59.89;100512.67;1404675;91;21626;-93
2021/08/25 07:20:00;;;;;;;10.80;3.83;;;;;;;16.42;59.40;100514.60;1404710;90;21340;-95
2021/08/25 07:22:26;;;;;;;7.23;4.30;;;;;;;16.65;60.83;100509.98;1419604;86;21867;-91
2021/08/25 07:30:55;;;;;;;12.30;4.20;;;;;;;17.03;57.98;100514.39;1525946;85;24629;-92
2021/08/25 07:33:22;;;;;;;7.03;2.90;;;;;;;16.89;57.21;100512.92;1491217;88;21405;-91
2021/08/25 07:35:49;;;;;;;6.53;3.40;;;;;;;16.66;56.23;100517.52;1481866;87;21615;-92
2021/08/25 07:38:16;;;;;;;6.30;3.10;;;;;;;16.87;57.08;100509.59;1480525;87;21448;-92
2021/08/25 07:40:44;;;;;;;8.47;4.00;;;;;;;16.96;57.09;100524.20;1479235;87;22328;-90
2021/08/25 07:43:10;;;;;;;8.57;3.93;;;;;;;16.96;57.11;100514.33;1479514;87;21514;-92
2021/08/25 07:45:37;;;;;;;7.47;3.23;;;;;;;17.00;56.75;100506.23;1489098;87;21412;-93
2021/08/25 07:48:05;;;;;;;5.50;3.27;;;;;;;17.25;57.65;100510.75;1484003;87;21581;-93
2021/08/25 07:50:38;;;;;;;7.33;3.47;;;;;;;17.21;56.35;100508.66;1479038;87;21802;-93
2021/08/25 07:53:04;;;;;;;9.13;4.17;;;;;;;17.39;56.60;100513.06;1478864;88;22781;-92
2021/08/25 07:55:33;;;;;;;9.13;3.67;;;;;;;17.37;56.70;100513.75;1487828;88;21478;-92
2021/08/25 07:57:59;;;;;;;12.53;4.53;;;;;;;17.58;57.58;100521.80;1487752;87;22105;-92
2021/08/25 08:00:26;;;;;;;6.50;3.67;;;;;;;17.75;57.28;100519.70;1470955;87;22247;-93
2021/08/25 08:02:52;;;;;;;8.53;4.00;;;;;;;17.91;56.56;100519.95;1484500;87;22402;-93
2021/08/25 08:05:19;;;;;;;7.55;4.65;;;;;;;18.09;56.85;100522.16;1484377;87;21463;-93
2021/08/25 08:07:48;;;;;;;5.20;3.27;;;;;;;18.25;56.45;100518.37;1485397;87;21500;-92
2021/08/25 08:10:15;;;;;;;5.20;3.60;;;;;;;18.38;55.55;100514.94;1483833;87;22306;-91
2021/08/25 08:12:47;;;;;;;6.65;4.60;;;;;;;18.44;54.98;100512.32;1483984;87;21410;-93
2021/08/25 08:15:14;;;;;;;13.30;4.33;;;;;;;18.65;55.75;100518.09;1484362;88;21432;-92
2021/08/25 08:17:45;;;;;;;9.78;3.87;;;;;;;18.75;54.90;100518.27;1488281;87;21448;-93
2021/08/25 08:20:10;;;;;;;8.13;4.12;;;;;;;18.79;53.51;100506.11;1464256;88;22387;-93
2021/08/25 08:22:37;;;;;;;5.15;3.47;;;;;;;18.70;52.87;100508.09;1479910;87;21375;-92
2021/08/25 08:25:06;;;;;;;7.67;4.17;;;;;;;18.85;53.53;100510.19;1482761;88;21516;-93
2021/08/25 08:27:33;;;;;;;5.42;3.55;;;;;;;18.87;54.03;100509.48;1485686;88;21559;-93
2021/08/25 08:30:01;;;;;;;5.70;3.33;;;;;;;18.88;54.05;100511.13;1481704;87;21389;-93
2021/08/25 08:32:27;;;;;;;12.18;4.50;;;;;;;18.77;52.82;100509.00;1476620;87;21470;-92
2021/08/25 08:34:53;;;;;;;8.65;4.47;;;;;;;18.61;52.13;100512.80;1486556;87;21507;-94
2021/08/25 08:37:19;;;;;;;9.25;3.87;;;;;;;18.81;53.56;100508.09;1496484;87;22111;-95
2021/08/25 08:39:51;;;;;;;8.85;4.17;;;;;;;18.98;53.86;100510.73;1476118;87;21544;-96
2021/08/25 08:42:31;;;;;;;8.20;3.58;;;;;;;19.10;53.94;100506.95;1484952;87;22624;-96
2021/08/25 08:44:59;;;;;;;6.05;3.92;;;;;;;19.06;53.52;100514.59;1463017;86;21419;-93
2021/08/25 08:47:28;;;;;;;7.30;4.53;;;;;;;19.05;52.54;100505.42;1470166;89;21455;-92
2021/08/25 08:49:57;;;;;;;8.20;4.92;;;;;;;19.10;53.89;100516.34;1458555;89;21522;-89
2021/08/25 08:52:28;;;;;;;8.45;4.67;;;;;;;19.22;54.03;100502.68;1463663;89;21885;-87
2021/08/25 08:54:58;;;;;;;6.45;3.98;;;;;;;18.99;54.35;100507.05;1459932;89;22403;-86
2021/08/25 08:57:24;;;;;;;10.15;3.72;;;;;;;18.86;54.68;100499.76;1470262;89;21433;-86
2021/08/25 08:59:50;;;;;;;10.53;4.40;;;;;;;18.80;54.00;100499.22;1460098;89;21441;-87
2021/08/25 09:02:41;;;;;;;8.90;4.62;;;;;;;18.96;53.99;100499.89;1456645;89;22427;-85
2021/08/25 09:05:20;;;;;;;8.60;3.67;;;;;;;19.08;53.59;100495.63;1460822;88;22028;-84
2021/08/25 09:08:00;;;;;;;5.78;3.90;;;;;;;19.16;54.10;100494.08;1457474;89;22506;-85
2021/08/25 09:10:44;;;;;;;12.07;5.00;;;;;;;19.37;54.72;100478.36;1454220;89;22358;-84
2021/08/25 09:13:12;;;;;;;13.10;4.15;;;;;;;19.46;54.51;100481.67;1453317;89;21427;-84
2021/08/25 09:15:42;;;;;;;6.37;4.37;;;;;;;19.54;53.05;100478.27;1465549;88;21495;-84
2021/08/25 09:18:19;;;;;;;6.33;4.17;;;;;;;19.35;52.69;100477.20;1483822;86;21403;-84
2021/08/25 09:20:48;;;;;;;9.25;4.40;;;;;;;19.28;53.82;100470.19;1461019;88;21443;-85
2021/08/25 09:23:42;;;;;;;6.05;3.50;;;;;;;19.25;53.81;100468.73;1472061;88;22261;-84
2021/08/25 09:26:09;;;;;;;9.88;3.90;;;;;;;19.35;53.73;100470.49;1477206;88;21404;-84
2021/08/25 09:28:38;;;;;;;6.70;3.67;;;;;;;19.49;54.34;100470.00;1470623;88;21995;-84
2021/08/25 09:31:07;;;;;;;6.67;4.45;;;;;;;19.72;53.19;100461.58;1462046;88;21479;-85
2021/08/25 09:33:37;;;;;;;10.98;4.67;;;;;;;19.59;53.36;100470.92;1449700;89;23629;-85
2021/08/25 09:36:11;;;;;;;9.53;3.67;;;;;;;19.80;54.50;100468.09;1452984;86;21458;-86
2021/08/25 09:38:39;;;;;;;5.22;4.05;;;;;;;19.56;52.40;100461.45;1465661;88;21649;-86
2021/08/25 09:41:13;;;;;;;7.62;4.35;;;;;;;19.54;54.37;100463.51;1451058;88;21833;-85
2021/08/25 09:43:43;;;;;;;8.15;4.62;;;;;;;19.45;52.46;100462.55;1461327;88;21477;-86
2021/08/25 09:46:17;;;;;;;7.35;4.85;;;;;;;19.54;53.18;100465.38;1451777;86;21338;-88
2021/08/25 09:48:57;;;;;;;5.20;3.40;;;;;;;19.61;52.73;100456.79;1458244;86;22553;-86
2021/08/25 09:51:42;;;;;;;5.60;4.27;;;;;;;19.76;52.40;100464.14;1456103;88;21433;-86
2021/08/25 09:54:13;;;;;;;16.07;4.80;;;;;;;19.54;51.60;100457.31;1465771;88;23310;-88
2021/08/25 09:56:41;;;;;;;5.45;4.30;;;;;;;19.66;51.92;100454.35;1481609;87;21515;-85
2021/08/25 09:59:13;;;;;;;9.23;3.55;;;;;;;19.73;51.44;100452.48;1464924;87;21559;-85
2021/08/25 10:01:43;;;;;;;9.55;4.08;;;;;;;19.90;51.97;100446.69;1468900;87;21419;-85
2021/08/25 10:04:14;;;;;;;6.78;3.65;;;;;;;19.92;51.60;100450.83;1450912;86;21435;-85
2021/08/25 10:06:44;;;;;;;6.55;4.03;;;;;;;19.94;50.82;100446.57;1463592;89;21578;-86
2021/08/25 10:09:11;;;;;;;11.35;4.87;;;;;;;19.62;51.12;100457.09;1449000;89;22662;-86
2021/08/25 10:12:02;;;;;;;6.47;4.00;;;;;;;19.86;51.63;100449.50;1453737;88;21412;-85
2021/08/25 10:14:31;;;;;;;6.08;4.87;;;;;;;19.83;50.97;100450.73;1421954;91;21634;-86
2021/08/25 10:16:57;;;;;;;4.28;3.42;;;;;;;20.07;52.07;100443.87;1457125;88;21500;-86
2021/08/25 10:19:37;;;;;;;8.10;4.85;;;;;;;20.27;51.68;100441.97;1458330;87;22187;-85
2021/08/25 10:22:18;;;;;;;8.35;3.70;;;;;;;20.31;50.65;100438.86;1445418;88;21762;-85
2021/08/25 10:25:06;;;;;;;7.87;4.25;;;;;;;20.36;50.24;100443.09;1452565;87;22217;-87
2021/08/25 10:27:36;;;;;;;10.88;3.33;;;;;;;20.65;50.88;100433.70;1444199;88;21689;-86
2021/08/25 10:30:07;;;;;;;6.15;4.40;;;;;;;20.83;50.48;100436.53;1453459;89;21582;-86
2021/08/25 10:32:37;;;;;;;6.58;3.98;;;;;;;20.76;49.14;100441.63;1451157;89;21456;-86
2021/08/25 10:35:27;;;;;;;;;;;;;;;20.87;50.79;100429.67;1459068;89;22328;-88
2021/08/25 10:38:27;;;;;;;6.30;3.90;;;;;;;21.11;50.67;100429.41;1448433;90;20298;-83
2021/08/25 10:41:02;;;;;;;;;;;;;;;21.16;49.17;100429.59;1452137;89;21641;-86
2021/08/25 10:43:43;;;;;;;8.13;3.27;;;;;;;21.09;48.28;100430.67;1458531;88;20469;-86
2021/08/25 10:46:17;;;;;;;6.58;4.20;;;;;;;21.42;48.88;100416.20;1466962;88;21405;-87
2021/08/25 10:49:05;;;;;;;6.37;3.80;;;;;;;21.62;47.72;100413.64;1456243;88;21455;-89
2021/08/25 10:51:38;;;;;;;7.85;3.87;;;;;;;21.61;46.79;100412.01;1395563;91;21400;-90
2021/08/25 10:54:10;;;;;;;8.55;3.95;;;;;;;21.24;47.84;100408.86;1458884;87;21640;-91
2021/08/25 10:56:45;;;;;;;6.47;3.95;;;;;;;21.28;47.05;100404.67;1408698;91;21437;-88
2021/08/25 10:59:20;;;;;;;6.37;4.03;;;;;;;21.54;47.97;100399.11;1444411;89;21640;-87
2021/08/25 11:01:50;;;;;;;5.72;3.70;;;;;;;21.69;47.07;100401.45;1456945;88;21441;-89
2021/08/25 11:04:22;;;;;;;6.67;3.75;;;;;;;21.58;45.77;100390.91;1455159;87;22373;-89
2021/08/25 11:06:57;;;;;;;5.90;3.65;;;;;;;21.67;47.37;100394.67;1457952;89;21455;-88
2021/08/25 11:09:50;;;;;;;5.92;3.77;;;;;;;21.41;47.19;100387.13;1466369;88;21404;-88
2021/08/25 11:12:45;;;;;;;6.40;4.15;;;;;;;21.61;47.79;100389.12;1443068;87;21905;-87
2021/08/25 11:15:11;;;;;;;7.33;3.87;;;;;;;21.75;47.33;100379.55;1460101;88;21478;-89
2021/08/25 11:17:46;;;;;;;7.33;3.67;;;;;;;21.16;46.80;100386.54;1464772;88;21403;-89
2021/08/25 11:20:12;;;;;;;13.38;4.12;;;;;;;21.08;47.60;100378.73;1447585;88;21471;-90
2021/08/25 11:22:58;;;;;;;5.22;4.03;;;;;;;21.35;48.54;100371.82;1458238;88;21575;-90
2021/08/25 11:25:24;;;;;;;4.92;3.52;;;;;;;21.45;47.88;100366.78;1470815;87;21441;-89
2021/08/25 11:27:52;;;;;;;5.30;3.58;;;;;;;21.37;48.07;100363.02;1455507;88;21375;-88
2021/08/25 11:30:29;;;;;;;9.13;4.08;;;;;;;21.51;47.66;100368.58;1445826;89;21544;-88
2021/08/25 11:33:07;;;;;;;5.05;3.27;;;;;;;21.56;46.96;100366.59;1443350;90;23366;-88
2021/08/25 11:35:43;;;;;;;7.20;3.50;;;;;;;21.20;46.41;100370.77;1451376;88;22161;-89
2021/08/25 11:38:20;;;;;;;8.28;4.47;;;;;;;21.40;48.73;100366.08;1447818;87;22374;-87